Terminal Aerodrome Forecast
Issued by NWS Raleigh/Durham, NC

Home | Current Version | Previous Version | Text Only | Print | Product List | Glossary On
Versions: 1 2 3 4 5 6 7 8 9 10 11 12 13 14 15 16 17 18 19 20 21 22 23 24 25 26
000
FTUS42 KRAH 041950 AAA
TAFFAY
TAF AMD
KFAY 041950Z 0420/0518 08005KT 5SM -RA BR OVC050
     FM042100 09005KT 3SM -RA BR OVC025
     FM050000 06005KT 2SM -RA BR OVC007
     FM050500 05005KT 1 1/2SM -RA BR OVC004
     FM050900 36005KT 1SM BR OVC002
     FM051200 36005KT 3SM BR OVC004
     FM051500 36005KT P6SM BKN015=

USA.gov is the U.S. government's official web portal to all federal, state and local government web resources and services.